createdAt,value
2019-03-30T00:01:37.963Z,66.18
2019-03-30T00:04:44.942Z,67.48
2019-03-30T00:07:51.854Z,67.48
2019-03-30T00:10:59.204Z,67.36
2019-03-30T00:14:07.161Z,67.59
2019-03-30T00:17:14.333Z,67.57
2019-03-30T00:20:21.353Z,67.89
2019-03-30T00:23:28.457Z,68.22
2019-03-30T00:26:35.264Z,68.58
2019-03-30T00:29:42.392Z,68.69
2019-03-30T00:32:49.328Z,69.14
2019-03-30T00:35:56.482Z,68.85
2019-03-30T00:39:04.215Z,68.80
2019-03-30T00:42:11.404Z,69.05
2019-03-30T00:45:18.343Z,69.90
2019-03-30T00:48:25.270Z,70.17
2019-03-30T00:51:32.483Z,69.58
2019-03-30T00:54:40.239Z,69.61
2019-03-30T00:57:47.284Z,69.70
2019-03-30T01:00:55.913Z,70.21
2019-03-30T01:04:02.712Z,70.37
2019-03-30T01:07:10.061Z,69.94
2019-03-30T01:10:17.168Z,70.45
2019-03-30T01:13:26.317Z,70.17
2019-03-30T01:16:33.211Z,70.44
2019-03-30T01:19:40.190Z,70.64
2019-03-30T01:22:47.156Z,71.24
2019-03-30T01:25:54.722Z,71.78
2019-03-30T01:29:01.719Z,72.19
2019-03-30T01:32:08.680Z,72.21
2019-03-30T01:35:15.834Z,72.75
2019-03-30T01:38:22.787Z,71.66
2019-03-30T01:41:29.685Z,72.37
2019-03-30T01:44:36.598Z,73.01
2019-03-30T01:47:43.573Z,72.69
2019-03-30T01:50:50.762Z,72.64
2019-03-30T01:53:57.738Z,73.05
2019-03-30T01:57:05.143Z,73.39
2019-03-30T02:00:12.318Z,73.48
2019-03-30T02:03:19.509Z,73.46
2019-03-30T02:06:26.427Z,73.76
2019-03-30T02:09:33.342Z,74.09
2019-03-30T02:12:40.311Z,73.79
2019-03-30T02:15:47.154Z,73.87
2019-03-30T02:18:54.257Z,73.62
2019-03-30T02:22:01.352Z,74.54
2019-03-30T02:25:08.423Z,74.16
2019-03-30T02:28:15.387Z,74.42
2019-03-30T02:31:22.297Z,75.39
2019-03-30T02:34:30.135Z,75.40
2019-03-30T02:37:37.187Z,75.28
2019-03-30T02:40:44.336Z,74.56
2019-03-30T02:43:51.146Z,75.30
2019-03-30T02:46:58.162Z,75.61
2019-03-30T02:50:05.216Z,75.76
2019-03-30T02:53:12.117Z,75.68
2019-03-30T02:56:19.075Z,75.29
2019-03-30T02:59:26.330Z,75.69
2019-03-30T03:02:33.257Z,75.76
2019-03-30T03:05:41.333Z,76.32
2019-03-30T03:08:48.196Z,76.54
2019-03-30T03:11:55.104Z,76.52
2019-03-30T03:15:02.160Z,76.65
2019-03-30T03:18:09.282Z,76.83
2019-03-30T03:21:16.246Z,76.78
2019-03-30T03:24:23.245Z,76.67
2019-03-30T03:27:30.168Z,76.61
2019-03-30T03:30:37.228Z,77.14
2019-03-30T03:33:44.122Z,77.14
2019-03-30T03:36:51.830Z,76.70
2019-03-30T03:39:58.808Z,76.70
2019-03-30T03:43:05.825Z,77.12
2019-03-30T03:46:13.791Z,77.20
2019-03-30T03:49:20.679Z,77.30
2019-03-30T03:52:28.048Z,77.06
2019-03-30T03:55:35.907Z,77.16
2019-03-30T03:58:42.791Z,77.21
2019-03-30T04:01:50.638Z,77.45
2019-03-30T04:04:59.480Z,77.17
2019-03-30T04:08:07.053Z,77.45
2019-03-30T04:11:15.297Z,77.44
2019-03-30T04:14:24.142Z,76.86
2019-03-30T04:17:31.108Z,77.22
2019-03-30T04:20:38.154Z,77.15
2019-03-30T04:23:45.122Z,77.61
2019-03-30T04:26:52.050Z,77.74
2019-03-30T04:29:59.065Z,77.46
2019-03-30T04:33:07.999Z,77.22
2019-03-30T04:36:14.871Z,77.36
2019-03-30T04:39:21.898Z,77.52
2019-03-30T04:42:28.873Z,77.25
2019-03-30T04:45:36.913Z,77.20
2019-03-30T04:48:43.764Z,77.56
2019-03-30T04:51:57.340Z,77.43
2019-03-30T04:54:59.500Z,77.69
2019-03-30T04:58:09.197Z,77.94
2019-03-30T05:01:15.204Z,77.94
2019-03-30T05:04:22.596Z,77.82
2019-03-30T05:07:29.441Z,78.30
2019-03-30T05:10:36.544Z,78.19
2019-03-30T05:13:43.349Z,78.61
2019-03-30T05:16:50.255Z,78.32
2019-03-30T05:19:57.313Z,78.36
2019-03-30T05:23:04.250Z,78.59
2019-03-30T05:26:11.199Z,78.41
2019-03-30T05:29:18.568Z,78.52
2019-03-30T05:32:25.597Z,78.26
2019-03-30T05:35:32.767Z,78.42
2019-03-30T05:38:39.604Z,78.13
2019-03-30T05:41:46.449Z,78.53
2019-03-30T05:44:53.563Z,78.14
2019-03-30T05:48:00.450Z,78.13
2019-03-30T05:51:07.343Z,77.91
2019-03-30T05:54:15.374Z,77.91
2019-03-30T05:57:22.413Z,77.98
2019-03-30T06:00:29.353Z,77.61
2019-03-30T06:03:36.237Z,77.73
2019-03-30T06:06:43.740Z,77.53
2019-03-30T06:09:50.664Z,77.31
2019-03-30T06:12:57.670Z,76.76
2019-03-30T06:16:04.563Z,76.76
2019-03-30T06:19:11.552Z,76.91
2019-03-30T06:22:19.577Z,76.86
2019-03-30T06:25:26.905Z,76.77
2019-03-30T06:28:33.934Z,76.56
2019-03-30T06:31:40.831Z,76.50
2019-03-30T06:34:47.893Z,76.39
2019-03-30T06:37:55.459Z,75.85
2019-03-30T06:41:02.411Z,75.68
2019-03-30T06:44:09.426Z,75.59
2019-03-30T06:47:16.535Z,75.27
2019-03-30T06:50:23.578Z,75.07
2019-03-30T06:53:30.512Z,74.65
2019-03-30T06:56:37.509Z,74.52
2019-03-30T06:59:44.540Z,74.08
2019-03-30T07:02:51.496Z,73.80
2019-03-30T07:05:59.391Z,73.95
2019-03-30T07:09:07.520Z,73.79
2019-03-30T07:12:14.811Z,73.53
2019-03-30T07:15:22.584Z,73.41
2019-03-30T07:18:29.704Z,73.43
2019-03-30T07:21:36.695Z,73.29
2019-03-30T07:24:43.622Z,73.07
2019-03-30T07:27:50.504Z,72.82
2019-03-30T07:30:57.423Z,72.43
2019-03-30T07:34:04.402Z,72.44
2019-03-30T07:37:11.457Z,72.18
2019-03-30T07:40:18.898Z,71.98
2019-03-30T07:43:25.829Z,71.50
2019-03-30T07:46:32.742Z,71.33
2019-03-30T07:49:40.345Z,70.98
2019-03-30T07:52:47.237Z,70.54
2019-03-30T07:56:07.785Z,70.15
2019-03-30T07:59:03.838Z,68.97
2019-03-30T08:02:10.862Z,68.70
2019-03-30T08:05:17.818Z,67.83
2019-03-30T08:08:24.851Z,67.25
2019-03-30T08:11:32.107Z,65.91
2019-03-30T08:14:40.112Z,64.86
2019-03-30T08:17:47.040Z,63.27
2019-03-30T08:20:53.933Z,63.18
2019-03-30T08:24:00.898Z,62.05
2019-03-30T08:27:09.162Z,60.71
2019-03-30T08:30:16.303Z,60.58
2019-03-30T08:33:23.264Z,59.78
2019-03-30T08:36:30.262Z,58.72
2019-03-30T08:39:37.326Z,59.68
2019-03-30T08:42:44.986Z,59.23
2019-03-30T08:45:51.900Z,57.73
2019-03-30T08:48:58.827Z,58.61
2019-03-30T08:52:05.794Z,58.17
2019-03-30T08:55:12.814Z,57.40
2019-03-30T08:58:19.767Z,57.41
2019-03-30T09:01:26.707Z,55.89
2019-03-30T09:04:33.583Z,55.04
2019-03-30T09:07:40.967Z,53.85
2019-03-30T09:10:47.854Z,54.25
2019-03-30T09:13:55.177Z,54.82
2019-03-30T09:17:02.220Z,54.67
2019-03-30T09:20:10.592Z,54.67
2019-03-30T09:23:18.470Z,54.52
2019-03-30T09:26:25.543Z,52.72
2019-03-30T09:29:32.570Z,52.86
2019-03-30T09:32:39.628Z,51.34
2019-03-30T09:35:46.503Z,51.59
2019-03-30T09:38:53.476Z,50.60
2019-03-30T09:42:00.351Z,49.74
2019-03-30T09:45:08.018Z,49.84
2019-03-30T09:48:14.947Z,49.01
2019-03-30T09:51:22.007Z,49.09
2019-03-30T09:54:28.912Z,49.03
2019-03-30T09:57:35.805Z,46.88
2019-03-30T10:00:43.663Z,45.75
2019-03-30T10:03:50.591Z,44.19
2019-03-30T10:06:57.539Z,43.43
2019-03-30T10:10:04.576Z,42.73
2019-03-30T10:13:11.430Z,41.15
2019-03-30T10:16:18.788Z,40.49
2019-03-30T10:19:27.790Z,40.23
2019-03-30T10:22:34.455Z,39.86
2019-03-30T10:25:41.383Z,37.49
2019-03-30T10:28:48.398Z,38.56
2019-03-30T10:31:55.493Z,40.01
2019-03-30T10:35:02.494Z,38.71
2019-03-30T10:38:09.456Z,37.37
2019-03-30T10:41:16.472Z,38.32
2019-03-30T10:44:23.623Z,36.51
2019-03-30T10:47:31.881Z,36.07
2019-03-30T10:50:38.922Z,36.15
2019-03-30T10:53:46.134Z,35.25
2019-03-30T10:56:53.147Z,34.64
2019-03-30T11:00:00.382Z,34.28
2019-03-30T11:03:07.288Z,35.06
2019-03-30T11:06:15.290Z,35.90
2019-03-30T11:09:24.815Z,35.09
2019-03-30T11:12:31.742Z,35.79
2019-03-30T11:15:38.726Z,33.65
2019-03-30T11:18:46.207Z,32.86
2019-03-30T11:21:53.217Z,34.28
2019-03-30T11:25:07.531Z,35.19
2019-03-30T11:28:09.089Z,34.89
2019-03-30T11:31:16.247Z,34.09
2019-03-30T11:34:25.194Z,35.34
2019-03-30T11:37:32.208Z,34.16
2019-03-30T11:40:39.267Z,34.53
2019-03-30T11:43:46.349Z,33.76
2019-03-30T11:46:53.313Z,34.77
2019-03-30T11:50:00.657Z,36.42
2019-03-30T11:53:08.839Z,36.44
2019-03-30T11:56:15.989Z,35.54
2019-03-30T11:59:23.206Z,35.87
2019-03-30T12:02:31.396Z,36.39
2019-03-30T12:05:38.401Z,36.41
2019-03-30T12:08:45.350Z,36.41
2019-03-30T12:11:52.323Z,36.57
2019-03-30T12:14:59.480Z,35.92
2019-03-30T12:18:06.482Z,34.69
2019-03-30T12:21:13.885Z,34.45
2019-03-30T12:24:20.920Z,35.46
2019-03-30T12:27:27.876Z,34.49
2019-03-30T12:30:34.919Z,36.15
2019-03-30T12:33:41.987Z,39.49
2019-03-30T12:36:49.082Z,39.89
2019-03-30T12:39:58.269Z,38.14
2019-03-30T12:43:04.707Z,36.73
2019-03-30T12:46:11.866Z,36.46
2019-03-30T12:49:18.929Z,38.48
2019-03-30T12:52:27.319Z,38.48
2019-03-30T12:55:34.310Z,37.98
2019-03-30T12:58:41.539Z,39.02
2019-03-30T13:01:48.562Z,39.79
2019-03-30T13:04:55.560Z,40.24
2019-03-30T13:08:02.574Z,38.84
2019-03-30T13:11:09.605Z,40.97
2019-03-30T13:14:16.649Z,40.31
2019-03-30T13:17:23.666Z,41.33
2019-03-30T13:20:30.567Z,41.89
2019-03-30T13:23:37.869Z,41.70
2019-03-30T13:26:44.986Z,42.22
2019-03-30T13:29:52.166Z,42.57
2019-03-30T13:32:59.198Z,43.66
2019-03-30T13:36:10.531Z,43.23
2019-03-30T13:39:16.608Z,44.31
2019-03-30T13:42:23.728Z,44.13
2019-03-30T13:45:30.705Z,44.15
2019-03-30T13:48:37.807Z,45.55
2019-03-30T13:51:44.911Z,45.78
2019-03-30T13:54:52.102Z,46.12
2019-03-30T13:57:59.072Z,47.13
2019-03-30T14:01:05.964Z,47.18
2019-03-30T14:04:12.969Z,48.24
2019-03-30T14:07:19.983Z,48.28
2019-03-30T14:10:26.920Z,46.11
2019-03-30T14:13:33.978Z,46.15
2019-03-30T14:16:40.878Z,45.31
2019-03-30T14:19:47.895Z,44.94
2019-03-30T14:22:54.777Z,44.70
2019-03-30T14:26:01.960Z,44.54
2019-03-30T14:29:08.909Z,44.67
2019-03-30T14:32:15.993Z,45.20
2019-03-30T14:35:22.993Z,46.39
2019-03-30T14:38:29.863Z,46.95
2019-03-30T14:41:36.910Z,48.08
2019-03-30T14:44:43.947Z,47.01
2019-03-30T14:47:50.754Z,48.09
2019-03-30T14:50:57.589Z,48.87
2019-03-30T14:54:04.531Z,48.98
2019-03-30T14:57:12.999Z,49.79
2019-03-30T15:00:20.122Z,49.55
2019-03-30T15:03:27.204Z,48.97
2019-03-30T15:06:34.275Z,50.63
2019-03-30T15:09:41.222Z,50.63
2019-03-30T15:12:48.128Z,51.56
2019-03-30T15:15:55.009Z,52.02
2019-03-30T15:19:02.940Z,52.02
2019-03-30T15:22:10.264Z,52.78
2019-03-30T15:25:17.215Z,53.47
2019-03-30T15:28:24.455Z,53.35
2019-03-30T15:31:31.462Z,53.42
2019-03-30T15:34:38.408Z,52.45
2019-03-30T15:37:45.199Z,53.01
2019-03-30T15:40:55.438Z,54.03
2019-03-30T15:44:00.827Z,54.03
2019-03-30T15:47:07.811Z,53.82
2019-03-30T15:50:14.913Z,54.75
2019-03-30T15:53:21.751Z,54.83
2019-03-30T15:56:28.717Z,55.34
2019-03-30T15:59:36.850Z,55.60
2019-03-30T16:02:43.728Z,55.43
2019-03-30T16:05:50.717Z,55.93
2019-03-30T16:08:57.555Z,56.72
2019-03-30T16:12:04.482Z,56.89
2019-03-30T16:15:11.687Z,57.00
2019-03-30T16:18:19.284Z,57.38
2019-03-30T16:21:26.284Z,57.37
2019-03-30T16:24:33.368Z,57.80
2019-03-30T16:27:42.039Z,57.44
2019-03-30T16:30:49.339Z,57.32
2019-03-30T16:33:56.646Z,57.63
2019-03-30T16:37:04.152Z,58.20
2019-03-30T16:40:11.482Z,58.76
2019-03-30T16:43:18.420Z,59.26
2019-03-30T16:46:25.578Z,59.22
2019-03-30T16:49:32.526Z,59.53
2019-03-30T16:52:41.184Z,60.00
2019-03-30T16:55:49.887Z,60.47
2019-03-30T16:58:56.877Z,60.13
2019-03-30T17:02:03.987Z,60.13
2019-03-30T17:05:11.770Z,60.58
2019-03-30T17:08:18.704Z,60.60
2019-03-30T17:11:26.533Z,60.88
2019-03-30T17:14:33.649Z,61.23
2019-03-30T17:17:40.553Z,61.46
2019-03-30T17:20:47.827Z,61.02
2019-03-30T17:23:54.929Z,61.07
2019-03-30T17:27:03.546Z,61.06
2019-03-30T17:30:10.752Z,60.77
2019-03-30T17:33:18.177Z,61.63
2019-03-30T17:36:28.318Z,61.54
2019-03-30T17:39:35.216Z,61.35
2019-03-30T17:42:42.164Z,61.17
2019-03-30T17:45:49.104Z,61.50
2019-03-30T17:48:56.111Z,61.34
2019-03-30T17:52:03.292Z,61.27
2019-03-30T17:55:10.296Z,61.68
2019-03-30T17:58:18.304Z,61.56
2019-03-30T18:01:25.214Z,61.26
2019-03-30T18:04:32.798Z,61.02
2019-03-30T18:07:39.673Z,61.11
2019-03-30T18:10:46.610Z,61.06
2019-03-30T18:13:53.623Z,60.71
2019-03-30T18:17:00.527Z,60.37
2019-03-30T18:20:07.638Z,60.17
2019-03-30T18:23:14.687Z,59.90
2019-03-30T18:26:22.013Z,59.97
2019-03-30T18:29:29.318Z,60.07
2019-03-30T18:32:37.432Z,60.17
2019-03-30T18:35:44.840Z,60.02
2019-03-30T18:39:08.442Z,59.94
2019-03-30T18:42:05.764Z,60.08
2019-03-30T18:45:16.245Z,59.83
2019-03-30T18:48:25.100Z,60.29
2019-03-30T18:51:32.322Z,60.36
2019-03-30T18:54:40.113Z,60.55
2019-03-30T18:57:47.050Z,60.57
2019-03-30T19:00:54.046Z,60.83
2019-03-30T19:04:02.548Z,60.80
2019-03-30T19:07:10.078Z,60.96
2019-03-30T19:10:17.087Z,61.08
2019-03-30T19:13:27.291Z,61.22
2019-03-30T19:16:36.931Z,61.54
2019-03-30T19:19:44.009Z,61.50
2019-03-30T19:22:51.020Z,61.59
2019-03-30T19:25:57.875Z,62.10
2019-03-30T19:29:07.484Z,62.16
2019-03-30T19:32:14.403Z,61.90
2019-03-30T19:35:21.495Z,62.14
2019-03-30T19:38:28.587Z,62.17
2019-03-30T19:41:38.680Z,62.71
2019-03-30T19:44:47.633Z,62.64
2019-03-30T19:47:54.551Z,62.64
2019-03-30T19:51:02.921Z,63.06
2019-03-30T19:54:09.804Z,63.16
2019-03-30T19:57:16.701Z,63.08
2019-03-30T20:00:24.449Z,63.27
2019-03-30T20:03:31.431Z,63.32
2019-03-30T20:06:38.409Z,63.70
2019-03-30T20:09:46.466Z,63.74
2019-03-30T20:12:53.367Z,63.69
2019-03-30T20:16:00.181Z,63.66
2019-03-30T20:19:12.464Z,63.51
2019-03-30T20:22:16.263Z,63.63
2019-03-30T20:25:26.014Z,63.56
2019-03-30T20:28:31.800Z,63.54
2019-03-30T20:31:38.834Z,64.34
2019-03-30T20:34:51.336Z,65.01
2019-03-30T20:38:00.649Z,65.18
2019-03-30T20:41:07.982Z,66.24
2019-03-30T20:44:14.899Z,66.22
2019-03-30T20:47:21.840Z,66.29
2019-03-30T20:50:30.190Z,66.20
2019-03-30T20:53:37.362Z,67.08
2019-03-30T20:56:55.868Z,67.87
2019-03-30T21:00:16.267Z,68.14
2019-03-30T21:03:21.221Z,69.40
2019-03-30T21:06:30.051Z,69.68
2019-03-30T21:09:38.993Z,70.74
2019-03-30T21:12:48.146Z,70.85
2019-03-30T21:15:55.347Z,70.51
2019-03-30T21:19:04.624Z,70.30
2019-03-30T21:22:12.711Z,70.50
2019-03-30T21:25:21.209Z,70.54
2019-03-30T21:28:30.998Z,70.54
2019-03-30T21:31:39.699Z,70.61
2019-03-30T21:34:46.774Z,70.42
2019-03-30T21:37:53.804Z,70.79
2019-03-30T21:41:00.701Z,72.42
2019-03-30T21:44:21.476Z,72.63
2019-03-30T21:47:16.604Z,71.82
2019-03-30T21:50:23.469Z,72.50
2019-03-30T21:53:30.443Z,72.43
2019-03-30T21:56:38.508Z,72.32
2019-03-30T21:59:46.715Z,72.50
2019-03-30T22:02:53.671Z,73.94
2019-03-30T22:06:05.264Z,73.59
2019-03-30T22:09:12.573Z,73.58
2019-03-30T22:12:19.582Z,74.29
2019-03-30T22:15:28.908Z,74.72
2019-03-30T22:18:35.808Z,75.13
2019-03-30T22:21:42.736Z,75.86
2019-03-30T22:24:49.792Z,76.44
2019-03-30T22:27:56.862Z,77.91
2019-03-30T22:31:03.764Z,78.78
2019-03-30T22:34:10.932Z,78.17
2019-03-30T22:37:17.858Z,78.31
2019-03-30T22:40:24.928Z,78.57
2019-03-30T22:43:31.795Z,78.56
2019-03-30T22:46:39.264Z,79.34
2019-03-30T22:49:46.225Z,78.61
2019-03-30T22:52:53.267Z,79.12
2019-03-30T22:56:00.214Z,78.60
2019-03-30T22:59:07.159Z,79.38
2019-03-30T23:02:14.133Z,79.00
2019-03-30T23:05:22.415Z,78.58
2019-03-30T23:08:29.388Z,79.46
2019-03-30T23:11:36.493Z,79.60
2019-03-30T23:14:43.563Z,79.32
2019-03-30T23:17:50.857Z,79.85
2019-03-30T23:20:57.737Z,79.95
2019-03-30T23:24:04.694Z,79.21
2019-03-30T23:27:11.761Z,79.42
2019-03-30T23:30:18.990Z,79.25
2019-03-30T23:33:25.931Z,79.15
2019-03-30T23:36:36.917Z,80.12
2019-03-30T23:39:43.803Z,79.81
2019-03-30T23:42:50.972Z,80.42
2019-03-30T23:45:57.862Z,79.64
2019-03-30T23:49:05.053Z,79.76
2019-03-30T23:52:12.012Z,80.01
2019-03-30T23:55:18.934Z,79.43
2019-03-30T23:58:25.840Z,79.57
